Time;durP1;ratioP1;P1;durP2;ratioP2;P2;SDS_P1;SDS_P2;PMS_P1;PMS_P2;Temp;Humidity;BMP_temperature;BMP_pressure;BME280_temperature;BME280_humidity;BME280_pressure;Samples;Min_cycle;Max_cycle;Signal;HPM_P1;HPM_P2
2022/12/06 00:07:48;;;;;;;9.60;8.70;;;4.40;96.00;;;;;;4864685;26;20211;-92
2022/12/06 00:23:11;;;;;;;10.17;9.27;;;4.40;96.00;;;;;;5462666;23;20215;-91
2022/12/06 00:59:30;;;;;;;16.17;12.77;;;4.40;96.00;;;;;;4378541;26;20203;-91
2022/12/06 07:31:11;;;;;;;28.83;18.47;;;3.80;95.30;;;;;;1501049;22;20478;-92
2022/12/06 07:37:17;;;;;;;;;;;;;;;;;;;;;
2022/12/06 07:44:59;;;;;;;30.87;19.93;;;3.80;95.30;;;;;;4993975;28;20205;-92
2022/12/06 10:03:55;;;;;;;24.50;20.20;;;3.70;95.00;;;;;;4852126;26;20228;-92
2022/12/06 10:06:28;;;;;;;24.17;19.77;;;3.80;95.00;;;;;;5016356;28;20173;-92
2022/12/06 10:09:05;;;;;;;29.47;19.93;;;3.80;95.00;;;;;;5004820;28;20199;-91
2022/12/06 10:12:01;;;;;;;24.07;18.40;;;3.80;95.00;;;;;;5004208;28;20654;-93
2022/12/06 10:14:42;;;;;;;24.93;18.63;;;3.80;95.00;;;;;;5004721;28;20211;-92
2022/12/06 10:17:23;;;;;;;26.60;18.87;;;3.80;95.00;;;;;;5008606;28;20225;-93
2022/12/06 10:20:13;;;;;;;23.67;18.50;;;3.80;94.90;;;;;;5010168;28;20184;-92
2022/12/06 10:23:36;;;;;;;22.53;17.17;;;3.80;94.90;;;;;;5259297;23;20244;-93
2022/12/06 10:28:42;;;;;;;20.73;17.83;;;3.80;94.90;;;;;;5244924;22;20219;-94
2022/12/06 10:31:41;;;;;;;23.83;18.00;;;3.80;94.80;;;;;;5039313;28;20160;-94
2022/12/06 10:39:47;;;;;;;25.10;19.53;;;3.80;94.70;;;;;;4019353;22;20243;-92
2022/12/06 10:42:26;;;;;;;24.93;19.07;;;3.80;94.70;;;;;;5017669;28;20249;-92
2022/12/06 10:47:02;;;;;;;27.63;20.00;;;3.70;94.70;;;;;;5016592;28;20204;-92
2022/12/06 10:47:55;;;;;;;26.30;20.33;;;3.70;94.70;;;;;;5017033;28;20182;-91
2022/12/06 10:50:32;;;;;;;27.47;20.70;;;3.70;94.70;;;;;;5013739;28;20203;-90
2022/12/06 10:53:10;;;;;;;26.67;19.77;;;3.70;94.70;;;;;;5015549;28;20154;-89
2022/12/06 10:55:53;;;;;;;28.73;20.57;;;3.60;94.60;;;;;;5015205;28;20162;-90
2022/12/06 10:58:42;;;;;;;27.30;20.33;;;3.70;94.70;;;;;;5016469;28;20172;-92
2022/12/06 11:01:18;;;;;;;24.83;19.43;;;3.70;94.70;;;;;;5017092;28;20181;-91
2022/12/06 11:03:59;;;;;;;25.47;17.87;;;3.70;94.60;;;;;;5015154;28;20207;-91
2022/12/06 11:06:28;;;;;;;20.50;15.23;;;3.70;94.60;;;;;;5020535;28;20260;-91
2022/12/06 11:09:03;;;;;;;15.83;13.70;;;3.70;94.60;;;;;;5014789;28;20703;-89
2022/12/06 11:11:34;;;;;;;15.23;13.10;;;3.70;94.60;;;;;;5014208;28;20691;-91
2022/12/06 11:14:05;;;;;;;15.70;12.07;;;3.70;94.60;;;;;;5016483;28;20676;-89
2022/12/06 11:16:42;;;;;;;15.77;13.03;;;3.60;94.60;;;;;;5014497;28;20179;-91
2022/12/06 11:19:37;;;;;;;16.23;13.03;;;3.60;94.60;;;;;;5014953;28;20166;-91
2022/12/06 11:22:40;;;;;;;13.13;11.73;;;3.70;94.50;;;;;;5014179;28;20708;-92
2022/12/06 11:25:18;;;;;;;13.97;11.27;;;3.60;94.50;;;;;;5014507;28;20246;-93
2022/12/06 11:28:23;;;;;;;15.77;12.20;;;3.60;94.50;;;;;;5017182;28;20184;-92
2022/12/06 11:30:51;;;;;;;13.07;11.00;;;3.60;94.50;;;;;;5010168;28;20692;-92
2022/12/06 11:33:22;;;;;;;13.73;11.60;;;3.60;94.40;;;;;;5021611;28;20194;-91
2022/12/06 11:35:48;;;;;;;14.40;11.17;;;3.60;94.40;;;;;;5019017;28;20713;-93
2022/12/06 11:38:15;;;;;;;13.43;11.10;;;3.60;94.40;;;;;;5030215;28;20191;-93
2022/12/06 11:40:45;;;;;;;12.50;11.20;;;3.60;94.40;;;;;;5027311;28;20217;-92
2022/12/06 11:43:48;;;;;;;12.97;11.47;;;3.60;94.40;;;;;;5029123;28;20243;-91
2022/12/06 11:46:14;;;;;;;13.43;11.03;;;3.70;94.40;;;;;;5020838;28;20183;-89
2022/12/06 11:48:41;;;;;;;11.67;10.47;;;3.60;94.40;;;;;;5017456;28;20183;-90
2022/12/06 11:51:19;;;;;;;12.47;11.20;;;3.60;94.40;;;;;;5015708;28;20180;-92
2022/12/06 11:54:01;;;;;;;12.00;10.37;;;3.70;94.40;;;;;;5015848;28;20207;-89
2022/12/06 11:56:30;;;;;;;10.63;9.63;;;3.70;94.30;;;;;;5015943;28;20179;-92
2022/12/06 11:59:11;;;;;;;11.17;9.77;;;3.70;94.40;;;;;;5019685;28;20225;-92
2022/12/06 12:01:43;;;;;;;10.90;9.83;;;3.70;94.30;;;;;;5017480;28;20182;-89
2022/12/06 12:04:35;;;;;;;11.17;10.07;;;3.80;94.30;;;;;;5013597;28;20199;-88
2022/12/06 12:07:15;;;;;;;11.90;10.70;;;3.70;94.20;;;;;;5013432;28;20191;-88
2022/12/06 12:09:46;;;;;;;11.67;10.30;;;3.70;94.20;;;;;;5014069;28;20676;-89
2022/12/06 12:12:18;;;;;;;12.67;10.23;;;3.80;93.90;;;;;;5012270;28;20180;-90
2022/12/06 12:14:52;;;;;;;10.80;9.80;;;3.70;93.70;;;;;;5012355;28;20207;-90
2022/12/06 12:17:21;;;;;;;11.67;10.57;;;3.70;93.60;;;;;;5012410;28;20189;-90
2022/12/06 12:20:01;;;;;;;12.63;11.33;;;3.70;93.40;;;;;;5012097;28;20188;-91
2022/12/06 12:22:26;;;;;;;11.03;9.90;;;3.70;93.30;;;;;;5016032;28;20650;-91
2022/12/06 12:25:20;;;;;;;10.93;9.87;;;3.80;93.20;;;;;;5015876;28;20231;-90
2022/12/06 12:27:48;;;;;;;11.10;10.10;;;3.70;93.10;;;;;;5015872;28;20178;-90
2022/12/06 12:30:39;;;;;;;11.83;10.50;;;3.70;93.00;;;;;;5015929;28;20728;-90
2022/12/06 12:33:04;;;;;;;11.10;10.10;;;3.70;93.00;;;;;;5015945;28;20352;-91
2022/12/06 12:35:32;;;;;;;11.27;10.17;;;3.60;92.90;;;;;;5016580;28;20695;-90
2022/12/06 12:38:02;;;;;;;11.53;10.33;;;3.70;92.90;;;;;;5015722;28;20634;-89
2022/12/06 12:40:35;;;;;;;12.30;10.77;;;3.80;93.00;;;;;;5015603;28;20203;-90
2022/12/06 12:43:11;;;;;;;11.63;10.43;;;3.80;92.70;;;;;;5015396;28;20187;-90
2022/12/06 12:46:20;;;;;;;12.03;10.87;;;3.80;92.60;;;;;;5015552;28;20187;-90
2022/12/06 12:48:48;;;;;;;12.40;11.17;;;3.80;92.70;;;;;;5015064;28;20279;-90
2022/12/06 12:51:35;;;;;;;11.57;10.47;;;3.80;92.70;;;;;;5015387;28;20212;-90
2022/12/06 12:54:04;;;;;;;11.97;10.73;;;3.90;92.70;;;;;;5015333;28;20207;-90
2022/12/06 12:56:37;;;;;;;12.17;10.83;;;4.00;92.60;;;;;;5015421;28;20186;-90
2022/12/06 12:59:14;;;;;;;11.60;10.50;;;4.00;92.50;;;;;;5015162;28;20191;-90
2022/12/06 13:01:44;;;;;;;10.70;9.70;;;3.90;92.40;;;;;;5016255;28;20186;-90
2022/12/06 13:04:25;;;;;;;11.13;10.13;;;4.00;92.40;;;;;;5015118;28;20208;-90
2022/12/06 13:06:59;;;;;;;12.07;11.00;;;4.00;92.40;;;;;;5015247;28;20173;-90
2022/12/06 13:09:37;;;;;;;11.90;10.70;;;3.90;92.20;;;;;;5015558;28;20203;-90
2022/12/06 13:12:13;;;;;;;11.87;10.77;;;4.00;92.10;;;;;;5015855;28;20177;-90
2022/12/06 13:14:48;;;;;;;12.13;10.93;;;3.90;92.00;;;;;;5015012;28;20677;-90
2022/12/06 13:17:14;;;;;;;11.27;10.27;;;3.80;91.90;;;;;;5014953;28;20164;-90
2022/12/06 13:19:45;;;;;;;12.00;10.77;;;3.80;91.90;;;;;;5014922;28;20533;-90
2022/12/06 13:22:19;;;;;;;11.30;10.27;;;3.90;91.90;;;;;;5014939;28;20694;-90
2022/12/06 13:24:50;;;;;;;11.70;10.63;;;3.90;91.80;;;;;;5014780;28;20204;-89
2022/12/06 13:27:19;;;;;;;13.07;10.83;;;3.90;91.80;;;;;;5015299;28;20170;-90
2022/12/06 13:30:03;;;;;;;13.27;11.97;;;3.80;91.90;;;;;;5014633;28;20220;-90
2022/12/06 13:32:35;;;;;;;11.80;10.70;;;3.80;91.90;;;;;;5014358;28;20252;-90
2022/12/06 13:35:22;;;;;;;11.07;10.07;;;3.80;91.90;;;;;;5014568;28;20292;-90
2022/12/06 13:37:52;;;;;;;12.53;11.33;;;3.80;91.90;;;;;;5014617;28;20165;-90
2022/12/06 13:40:44;;;;;;;12.93;11.80;;;3.80;91.90;;;;;;5014335;28;20192;-90
2022/12/06 13:43:22;;;;;;;12.43;11.23;;;3.90;92.00;;;;;;5014344;28;20200;-90
2022/12/06 13:46:07;;;;;;;11.80;10.63;;;3.90;92.10;;;;;;5014396;28;20646;-90
2022/12/06 13:48:32;;;;;;;11.83;10.83;;;3.90;92.20;;;;;;5014509;28;20188;-90
2022/12/06 13:51:00;;;;;;;11.73;10.63;;;4.00;92.10;;;;;;5014226;28;20204;-90
2022/12/06 13:53:28;;;;;;;12.03;10.73;;;3.90;92.10;;;;;;5014223;28;20205;-90
2022/12/06 13:56:00;;;;;;;11.67;10.77;;;3.80;91.90;;;;;;5015358;28;20169;-90
2022/12/06 13:58:26;;;;;;;12.10;11.10;;;3.70;91.80;;;;;;5014140;28;20194;-90
2022/12/06 14:00:56;;;;;;;12.90;11.80;;;3.70;91.80;;;;;;5014741;28;20646;-90
2022/12/06 14:03:22;;;;;;;13.77;12.43;;;3.70;91.60;;;;;;5014114;28;20200;-90
2022/12/06 14:06:02;;;;;;;13.00;11.90;;;3.50;91.40;;;;;;5014095;28;20210;-90
2022/12/06 14:08:42;;;;;;;13.70;12.50;;;3.60;91.50;;;;;;5014248;28;20215;-90
2022/12/06 14:11:22;;;;;;;14.03;12.73;;;3.60;91.40;;;;;;5013904;28;20193;-90
2022/12/06 14:13:54;;;;;;;14.63;13.30;;;3.40;91.00;;;;;;5013817;28;20220;-90
2022/12/06 14:16:39;;;;;;;13.37;12.23;;;3.40;91.10;;;;;;5013721;28;20269;-90
2022/12/06 14:19:31;;;;;;;14.33;13.03;;;3.50;91.00;;;;;;5013659;28;20187;-90
2022/12/06 14:22:03;;;;;;;12.63;11.53;;;3.60;91.10;;;;;;5007195;28;20186;-90
2022/12/06 14:24:34;;;;;;;12.60;11.50;;;3.50;90.90;;;;;;5013482;28;20199;-89
2022/12/06 14:27:04;;;;;;;12.20;11.17;;;3.50;90.90;;;;;;5013670;28;20178;-89
2022/12/06 14:29:30;;;;;;;10.20;9.40;;;3.50;90.70;;;;;;5013469;28;20202;-89
2022/12/06 14:31:56;;;;;;;9.53;8.73;;;3.30;90.20;;;;;;5013489;28;20179;-90
2022/12/06 14:34:31;;;;;;;9.97;9.17;;;3.30;90.10;;;;;;5013277;28;20222;-90
2022/12/06 14:36:59;;;;;;;9.60;8.80;;;3.20;89.90;;;;;;5013337;28;20229;-89
2022/12/06 14:39:28;;;;;;;10.30;9.50;;;3.10;89.70;;;;;;5013657;28;20207;-90
2022/12/06 14:45:01;;;;;;;9.83;9.00;;;2.90;89.60;;;;;;5014311;28;20212;-90
2022/12/06 14:47:26;;;;;;;10.03;9.13;;;2.90;89.60;;;;;;5013224;28;20637;-90
2022/12/06 14:53:00;;;;;;;9.60;8.80;;;2.80;89.60;;;;;;5014997;28;20162;-89
2022/12/06 14:55:29;;;;;;;10.03;9.13;;;2.70;89.80;;;;;;5013041;28;20175;-89
2022/12/06 14:57:58;;;;;;;9.30;8.50;;;2.70;89.90;;;;;;5013489;28;20185;-90
2022/12/06 15:00:31;;;;;;;8.70;7.97;;;2.60;90.00;;;;;;5013855;28;20284;-89
2022/12/06 15:03:00;;;;;;;10.00;8.40;;;2.50;90.00;;;;;;5012959;28;20182;-90
2022/12/06 15:05:39;;;;;;;9.37;8.57;;;2.50;90.20;;;;;;5012877;28;20223;-89
2022/12/06 15:08:26;;;;;;;9.97;9.07;;;2.50;90.20;;;;;;5012953;28;20166;-89
2022/12/06 15:10:57;;;;;;;10.43;9.30;;;2.30;90.10;;;;;;5012772;28;20201;-90
2022/12/06 15:13:23;;;;;;;9.23;8.53;;;2.30;90.10;;;;;;5013255;28;20197;-89
2022/12/06 15:16:07;;;;;;;9.80;8.90;;;2.20;90.00;;;;;;5013261;28;20193;-90
2022/12/06 15:18:53;;;;;;;9.53;8.73;;;2.10;90.10;;;;;;5012901;28;20162;-89
2022/12/06 15:21:19;;;;;;;9.50;8.60;;;2.10;90.10;;;;;;5012658;28;20173;-90
2022/12/06 15:23:53;;;;;;;8.53;7.83;;;2.10;90.20;;;;;;5012502;28;20210;-90
2022/12/06 15:26:21;;;;;;;10.13;8.80;;;2.00;90.10;;;;;;5012800;28;20631;-89
2022/12/06 15:28:47;;;;;;;8.90;8.20;;;2.00;90.10;;;;;;5012767;28;20230;-88
2022/12/06 15:31:16;;;;;;;9.70;8.90;;;2.00;90.20;;;;;;5012623;28;20183;-90
2022/12/06 15:33:41;;;;;;;8.80;8.10;;;1.90;90.20;;;;;;5012446;28;20201;-90
2022/12/06 15:36:12;;;;;;;10.17;9.23;;;1.80;90.20;;;;;;5012612;28;20729;-90
2022/12/06 15:38:38;;;;;;;9.33;8.57;;;1.70;90.30;;;;;;5012349;28;20193;-90
2022/12/06 15:41:04;;;;;;;10.10;9.20;;;1.80;90.60;;;;;;5012383;28;20180;-89
2022/12/06 15:43:34;;;;;;;10.10;9.23;;;1.70;90.60;;;;;;5012277;28;20208;-89
2022/12/06 15:46:02;;;;;;;10.07;9.17;;;1.80;90.70;;;;;;5013156;28;20204;-89
2022/12/06 15:48:29;;;;;;;9.33;8.53;;;1.80;90.70;;;;;;5012413;28;20196;-89
2022/12/06 15:50:56;;;;;;;10.40;9.50;;;1.80;90.70;;;;;;5012145;28;20212;-90
2022/12/06 15:53:24;;;;;;;9.57;8.77;;;1.70;90.60;;;;;;5012248;28;20605;-89
2022/12/06 15:55:50;;;;;;;9.87;8.97;;;1.60;90.50;;;;;;5012421;28;20182;-89
2022/12/06 15:58:16;;;;;;;13.20;9.13;;;1.50;90.70;;;;;;5012259;28;20552;-89
2022/12/06 16:00:42;;;;;;;8.90;8.10;;;1.50;90.80;;;;;;5012218;28;20186;-89
2022/12/06 16:03:07;;;;;;;9.63;8.83;;;1.50;90.90;;;;;;5012185;28;20701;-89
2022/12/06 16:05:34;;;;;;;9.97;8.97;;;1.50;90.90;;;;;;5013359;28;20264;-90
2022/12/06 16:21:51;;;;;;;9.37;8.47;;;1.50;91.20;;;;;;3707639;22;20310;-94
2022/12/06 16:58:16;;;;;;;10.37;9.37;;;2.00;91.50;;;;;;3190067;22;20233;-94
2022/12/06 17:01:03;;;;;;;;;;;;;;;;;;;;;
2022/12/06 17:03:35;;;;;;;12.03;9.70;;;2.10;91.50;;;;;;5029801;28;20231;-95
2022/12/06 17:06:01;;;;;;;9.93;8.93;;;1.90;91.30;;;;;;5027202;28;20184;-94
2022/12/06 17:08:26;;;;;;;10.03;9.03;;;1.90;91.30;;;;;;5033813;28;20178;-93
2022/12/06 17:14:43;;;;;;;9.33;8.43;;;1.90;91.40;;;;;;5035665;28;20236;-93
2022/12/06 17:24:58;;;;;;;8.90;8.00;;;2.00;91.40;;;;;;5906136;22;20240;-93
2022/12/06 17:27:23;;;;;;;10.00;9.00;;;2.00;91.40;;;;;;5073700;22;20240;-93
2022/12/06 17:32:26;;;;;;;13.67;9.47;;;2.00;91.40;;;;;;5991891;22;20244;-91
2022/12/06 17:38:00;;;;;;;12.97;9.87;;;1.90;91.30;;;;;;5252564;22;20220;-91
2022/12/06 17:46:37;;;;;;;9.80;8.90;;;2.20;91.40;;;;;;5047153;22;20247;-92
2022/12/06 17:49:24;;;;;;;9.73;8.73;;;2.10;91.30;;;;;;5000951;28;20201;-92
2022/12/06 18:53:58;;;;;;;12.70;11.40;;;1.40;91.20;;;;;;5005006;28;20221;-93
2022/12/06 18:56:29;;;;;;;15.43;11.60;;;1.50;91.30;;;;;;4980463;28;20174;-93
2022/12/06 19:22:58;;;;;;;12.70;11.13;;;1.30;92.50;;;;;;5641430;22;20235;-92
2022/12/06 19:25:24;;;;;;;12.87;10.83;;;1.30;92.60;;;;;;5002742;28;20207;-93
2022/12/06 19:27:49;;;;;;;15.83;13.30;;;1.40;92.70;;;;;;5010382;28;20210;-93
2022/12/06 19:30:16;;;;;;;19.77;13.40;;;1.40;92.70;;;;;;5011570;28;20225;-94
2022/12/06 19:32:42;;;;;;;19.17;13.77;;;1.40;92.80;;;;;;5016506;28;20205;-91
2022/12/06 19:35:08;;;;;;;15.77;13.30;;;1.40;92.80;;;;;;5018208;28;20182;-93
2022/12/06 21:06:17;;;;;;;25.60;14.13;;;2.30;94.20;;;;;;4678654;22;20233;-93
2022/12/06 21:08:44;;;;;;;17.53;13.70;;;2.30;94.30;;;;;;5035078;28;20181;-94
2022/12/06 21:11:16;;;;;;;23.60;15.83;;;2.30;94.30;;;;;;5033129;28;20280;-94
2022/12/06 21:13:42;;;;;;;17.80;14.63;;;2.40;94.40;;;;;;5037566;28;20272;-94
2022/12/06 21:16:17;;;;;;;18.77;15.23;;;2.40;94.40;;;;;;5038918;28;20185;-92
2022/12/06 21:18:43;;;;;;;21.10;14.97;;;2.50;94.50;;;;;;5039835;28;20247;-94
2022/12/06 21:21:09;;;;;;;20.73;15.87;;;2.50;94.50;;;;;;5038387;28;20173;-94
2022/12/06 21:26:36;;;;;;;19.97;14.47;;;2.60;94.70;;;;;;5062850;22;20253;-91
2022/12/06 21:29:05;;;;;;;25.57;15.23;;;2.70;94.70;;;;;;5147195;22;20312;-93
2022/12/06 21:31:34;;;;;;;23.93;16.10;;;2.80;94.80;;;;;;5038370;28;20165;-92
2022/12/06 21:34:00;;;;;;;30.37;17.53;;;2.80;94.80;;;;;;5033241;28;20189;-92
2022/12/06 21:36:27;;;;;;;34.50;16.83;;;2.80;94.90;;;;;;5039122;28;20196;-92
2022/12/06 21:38:58;;;;;;;36.77;18.47;;;2.80;94.90;;;;;;5040687;28;20174;-93
2022/12/06 21:41:45;;;;;;;24.47;16.50;;;2.90;95.00;;;;;;5040512;28;20155;-94
2022/12/06 21:44:10;;;;;;;25.53;18.13;;;3.00;95.00;;;;;;5040188;28;20225;-93
2022/12/06 21:46:36;;;;;;;21.53;17.20;;;3.00;95.00;;;;;;5040362;28;20161;-93
2022/12/06 21:49:02;;;;;;;18.03;14.77;;;2.90;95.00;;;;;;5040157;28;20158;-91
2022/12/06 21:51:30;;;;;;;27.57;19.17;;;3.00;95.10;;;;;;5035557;28;20224;-94
2022/12/06 21:53:56;;;;;;;29.70;21.47;;;2.90;95.10;;;;;;5036821;28;20185;-93
2022/12/06 21:56:24;;;;;;;30.47;19.77;;;2.90;95.10;;;;;;5036981;28;20177;-94
2022/12/06 21:58:50;;;;;;;23.67;18.53;;;2.90;95.10;;;;;;5037962;28;20201;-93
2022/12/06 22:01:19;;;;;;;27.23;20.50;;;3.00;95.10;;;;;;5039463;28;20164;-93
2022/12/06 22:03:49;;;;;;;29.30;21.33;;;3.00;95.20;;;;;;5029092;28;20224;-93
2022/12/06 22:06:15;;;;;;;29.23;19.83;;;3.10;95.20;;;;;;5017134;28;20597;-91
2022/12/06 22:08:42;;;;;;;33.38;26.85;;;3.10;95.20;;;;;;5016669;28;20411;-92
2022/12/06 22:11:11;;;;;;;35.70;23.50;;;3.10;95.20;;;;;;5036012;28;20201;-94
2022/12/06 22:13:37;;;;;;;28.87;19.63;;;3.10;95.20;;;;;;5038352;28;20249;-94
2022/12/06 22:21:47;;;;;;;30.00;22.10;;;3.10;95.20;;;;;;5038874;22;20233;-94
2022/12/06 22:24:16;;;;;;;26.60;19.33;;;3.10;95.20;;;;;;5039527;28;20185;-94
2022/12/06 22:26:44;;;;;;;22.97;18.27;;;3.20;95.20;;;;;;5038965;28;20225;-94
2022/12/06 22:29:13;;;;;;;30.63;20.70;;;3.20;95.30;;;;;;5039285;28;20198;-93
2022/12/06 22:34:14;;;;;;;29.83;21.63;;;3.20;95.30;;;;;;5337493;22;20239;-93
2022/12/06 22:36:40;;;;;;;27.93;20.73;;;3.20;95.30;;;;;;5038768;28;20221;-92
2022/12/06 22:39:06;;;;;;;33.20;22.27;;;3.20;95.30;;;;;;5038626;28;20194;-93
2022/12/06 22:41:32;;;;;;;27.33;21.47;;;3.30;95.30;;;;;;5035261;28;20178;-95
2022/12/06 22:44:00;;;;;;;26.23;18.87;;;3.30;95.30;;;;;;5037172;28;20201;-95
2022/12/06 22:46:27;;;;;;;33.37;22.43;;;3.30;95.40;;;;;;5293369;22;20233;-91
2022/12/06 22:48:55;;;;;;;31.87;18.77;;;3.30;95.40;;;;;;5039076;28;20194;-92
2022/12/06 22:51:26;;;;;;;33.07;23.47;;;3.30;95.30;;;;;;5037780;28;20311;-95
2022/12/06 22:53:54;;;;;;;34.57;24.23;;;3.30;95.30;;;;;;5037647;28;20199;-92
2022/12/06 22:56:21;;;;;;;31.17;23.43;;;3.30;95.30;;;;;;5039182;28;20169;-90
2022/12/06 22:58:47;;;;;;;33.80;21.97;;;3.20;95.20;;;;;;5034120;28;20178;-95
2022/12/06 23:01:13;;;;;;;29.07;21.87;;;3.10;95.20;;;;;;5035816;28;20612;-91
2022/12/06 23:19:11;;;;;;;36.73;24.43;;;2.90;95.30;;;;;;2898867;22;20223;-93
2022/12/06 23:21:39;;;;;;;29.47;19.57;;;2.90;95.30;;;;;;5037119;28;20189;-92
2022/12/06 23:24:08;;;;;;;28.77;22.70;;;2.90;95.30;;;;;;5038533;28;20202;-94
2022/12/06 23:26:37;;;;;;;30.73;21.60;;;2.90;95.30;;;;;;5032693;28;20169;-93
2022/12/06 23:29:04;;;;;;;28.37;22.10;;;2.90;95.30;;;;;;5035416;28;20169;-93
2022/12/06 23:31:32;;;;;;;31.17;21.37;;;2.90;95.40;;;;;;5022140;28;20217;-93
2022/12/06 23:34:04;;;;;;;31.67;23.40;;;3.00;95.40;;;;;;5033679;28;20189;-94
2022/12/06 23:36:32;;;;;;;38.07;23.73;;;3.00;95.40;;;;;;5038679;28;20189;-93
2022/12/06 23:38:58;;;;;;;33.60;21.77;;;3.00;95.40;;;;;;5038315;28;20181;-93
2022/12/06 23:41:32;;;;;;;30.67;21.40;;;2.90;95.40;;;;;;5036571;28;20181;-94
2022/12/06 23:43:59;;;;;;;32.53;19.70;;;3.00;95.40;;;;;;5027058;28;20301;-93
2022/12/06 23:46:27;;;;;;;30.97;21.20;;;3.00;95.40;;;;;;5026406;28;20189;-93
2022/12/06 23:48:53;;;;;;;30.07;19.60;;;3.00;95.40;;;;;;5027023;28;20185;-93
2022/12/06 23:51:22;;;;;;;32.87;22.80;;;3.00;95.40;;;;;;5030281;28;20273;-92
2022/12/06 23:53:56;;;;;;;31.23;21.83;;;3.00;95.40;;;;;;5034900;28;20257;-94
2022/12/06 23:56:22;;;;;;;24.43;18.63;;;3.00;95.40;;;;;;5038089;28;20192;-94
2022/12/06 23:58:51;;;;;;;27.67;20.03;;;3.10;95.40;;;;;;5038295;28;20172;-92
